Time;durP1;ratioP1;P1;durP2;ratioP2;P2;SDS_P1;SDS_P2;PMS_P1;PMS_P2;Temp;Humidity;BMP_temperature;BMP_pressure;BME280_temperature;BME280_humidity;BME280_pressure;Samples;Min_cycle;Max_cycle;Signal;HPM_P1;HPM_P2
2023/10/12 00:00:26;;;;;;;19.25;12.35;;;;;;;15.93;100.00;100944.47;5046670;28;20045;-49
2023/10/12 00:02:58;;;;;;;17.23;12.07;;;;;;;15.91;100.00;100949.09;5045726;28;20131;-51
2023/10/12 00:05:28;;;;;;;19.88;13.55;;;;;;;15.89;100.00;100951.03;5050444;28;20048;-49
2023/10/12 00:07:56;;;;;;;22.30;12.80;;;;;;;15.91;100.00;100950.88;5050534;28;20048;-47
2023/10/12 00:10:25;;;;;;;19.77;12.45;;;;;;;15.89;100.00;100962.44;5046234;28;20077;-50
2023/10/12 00:12:59;;;;;;;23.08;13.38;;;;;;;15.90;100.00;100968.63;5047155;28;20068;-48
2023/10/12 00:15:30;;;;;;;19.88;13.55;;;;;;;15.89;100.00;100966.94;5046102;28;20540;-48
2023/10/12 00:17:59;;;;;;;22.55;14.15;;;;;;;15.95;100.00;100974.38;5046982;28;20128;-50
2023/10/12 00:20:34;;;;;;;19.63;13.40;;;;;;;15.95;100.00;100977.03;5050636;28;20381;-50
2023/10/12 00:23:10;;;;;;;21.88;13.60;;;;;;;15.91;100.00;100975.59;5051254;28;20545;-46
2023/10/12 00:25:47;;;;;;;22.95;14.65;;;;;;;15.87;100.00;100968.88;5051086;28;20091;-47
2023/10/12 00:28:21;;;;;;;22.55;14.15;;;;;;;15.86;100.00;100962.72;5048298;28;20400;-48
2023/10/12 00:30:54;;;;;;;21.20;15.23;;;;;;;15.85;100.00;100960.22;5047324;28;20053;-48
2023/10/12 00:33:23;;;;;;;22.52;14.50;;;;;;;15.85;100.00;100966.34;5047123;28;20119;-49
2023/10/12 00:35:59;;;;;;;23.08;15.68;;;;;;;15.86;100.00;100972.50;5048928;28;20120;-48
2023/10/12 00:38:30;;;;;;;25.85;15.13;;;;;;;15.86;100.00;100983.09;5051134;28;20056;-51
2023/10/12 00:41:03;;;;;;;25.02;16.05;;;;;;;15.86;100.00;100991.06;5049807;28;20723;-50
2023/10/12 00:43:36;;;;;;;22.85;15.88;;;;;;;15.86;100.00;100988.41;5051203;28;20099;-48
2023/10/12 00:46:20;;;;;;;22.45;16.13;;;;;;;15.89;100.00;100990.78;5051426;28;20514;-49
2023/10/12 00:49:14;;;;;;;24.65;15.73;;;;;;;15.89;100.00;100982.84;5049122;28;20064;-48
2023/10/12 00:51:38;;;;;;;25.13;16.48;;;;;;;15.87;100.00;100984.81;5045752;28;20055;-49
2023/10/12 00:54:10;;;;;;;24.15;15.25;;;;;;;15.86;100.00;100972.50;5046895;28;20044;-46
2023/10/12 00:56:43;;;;;;;23.20;16.52;;;;;;;15.84;100.00;100985.91;5045264;28;20059;-50
2023/10/12 00:59:15;;;;;;;27.77;16.52;;;;;;;15.82;100.00;100984.34;5051028;28;20057;-50
2023/10/12 01:01:43;;;;;;;25.92;17.13;;;;;;;15.81;100.00;100985.31;5048191;28;20041;-51
2023/10/12 01:04:15;;;;;;;26.17;16.35;;;;;;;15.80;100.00;100984.47;5047410;28;20053;-50
2023/10/12 01:06:47;;;;;;;31.90;18.13;;;;;;;15.82;100.00;100981.69;5049594;28;20055;-48
2023/10/12 01:09:21;;;;;;;25.98;17.80;;;;;;;15.80;100.00;100983.63;5050842;28;20052;-48
2023/10/12 01:11:57;;;;;;;29.52;18.65;;;;;;;15.82;100.00;100984.34;5048282;28;20466;-51
2023/10/12 01:14:29;;;;;;;29.90;19.50;;;;;;;15.80;100.00;100984.47;5046858;28;20486;-49
2023/10/12 01:16:59;;;;;;;31.40;19.70;;;;;;;15.80;100.00;100984.47;5047070;28;20084;-47
2023/10/12 01:19:31;;;;;;;29.50;19.50;;;;;;;15.79;100.00;100985.41;5047802;28;20043;-51
2023/10/12 01:22:11;;;;;;;30.45;20.33;;;;;;;15.79;100.00;100987.19;5050765;28;20400;-48
2023/10/12 01:24:44;;;;;;;32.30;20.25;;;;;;;15.75;100.00;100991.09;5047611;28;20053;-49
2023/10/12 01:27:15;;;;;;;;;;;;;;;15.76;100.00;100992.78;5048232;28;20045;-48
2023/10/12 01:29:44;;;;;;;32.67;19.48;;;;;;;15.76;100.00;100993.63;5050235;28;20019;-51
2023/10/12 01:32:27;;;;;;;33.97;22.13;;;;;;;15.72;100.00;100993.03;5049768;28;20094;-50
2023/10/12 01:34:57;;;;;;;33.08;22.13;;;;;;;15.71;100.00;100983.41;5052661;28;20111;-49
2023/10/12 01:37:27;;;;;;;32.42;21.45;;;;;;;15.70;100.00;100992.31;5049073;28;20075;-50
2023/10/12 01:40:10;;;;;;;34.47;21.63;;;;;;;15.72;100.00;100987.75;5050622;28;20045;-49
2023/10/12 01:42:49;;;;;;;33.50;21.73;;;;;;;15.71;100.00;100983.41;5053765;28;20128;-52
2023/10/12 01:45:33;;;;;;;35.47;22.35;;;;;;;15.72;100.00;100982.44;5053469;28;20045;-51
2023/10/12 01:48:10;;;;;;;34.03;21.42;;;;;;;15.71;100.00;100991.34;5053006;28;20098;-51
2023/10/12 01:50:39;;;;;;;31.33;21.35;;;;;;;15.71;100.00;100998.47;5049668;28;20049;-48
2023/10/12 01:53:24;;;;;;;32.60;23.33;;;;;;;15.70;100.00;100989.66;5050038;28;21120;-50
2023/10/12 01:55:53;;;;;;;34.83;22.40;;;;;;;15.69;100.00;100987.16;5048171;28;20054;-50
2023/10/12 01:58:27;;;;;;;34.38;24.02;;;;;;;15.70;100.00;100988.84;5052495;28;20098;-49
2023/10/12 02:00:55;;;;;;;;;;;;;;;15.71;100.00;100996.66;5053094;28;20092;-51
2023/10/12 02:03:31;;;;;;;32.78;22.50;;;;;;;15.72;100.00;100992.22;5049674;28;19928;-49
2023/10/12 02:06:02;;;;;;;37.28;22.92;;;;;;;15.71;100.00;100998.47;5051931;28;20049;-49
2023/10/12 02:08:39;;;;;;;32.88;22.73;;;;;;;15.69;100.00;100989.78;5053343;28;20069;-49
2023/10/12 02:11:11;;;;;;;35.15;23.85;;;;;;;15.72;100.00;100993.03;5052220;28;20096;-51
2023/10/12 02:13:41;;;;;;;34.70;21.15;;;;;;;15.71;100.00;100998.47;5053269;28;20052;-51
2023/10/12 02:16:12;;;;;;;32.50;22.15;;;;;;;15.69;100.00;101003.06;5053388;28;20493;-52
2023/10/12 02:18:43;;;;;;;33.28;22.73;;;;;;;15.68;100.00;101007.53;5052053;28;20132;-49
2023/10/12 02:21:12;;;;;;;35.45;22.13;;;;;;;15.70;100.00;101008.22;5053143;28;20052;-46
2023/10/12 02:23:56;;;;;;;35.92;21.95;;;;;;;15.65;100.00;101006.94;5053215;28;20099;-49
2023/10/12 02:26:37;;;;;;;30.77;22.10;;;;;;;15.63;100.00;100998.28;5053166;28;20095;-47
2023/10/12 02:29:18;;;;;;;32.45;21.40;;;;;;;15.66;100.00;100982.13;5051576;28;20052;-49
2023/10/12 02:31:56;;;;;;;31.73;18.58;;;;;;;15.64;100.00;100963.69;5052983;28;20049;-46
2023/10/12 02:34:27;;;;;;;30.58;17.70;;;;;;;15.59;100.00;100949.97;5053160;28;20500;-46
2023/10/12 02:37:16;;;;;;;28.38;15.95;;;;;;;15.58;100.00;100950.13;5052975;28;20578;-50
2023/10/12 02:39:46;;;;;;;24.95;15.75;;;;;;;15.59;100.00;100973.84;5052585;28;20045;-50
2023/10/12 02:42:22;;;;;;;23.63;16.10;;;;;;;15.58;100.00;100980.09;5052695;28;20139;-50
2023/10/12 02:47:34;;;;;;;27.98;14.48;;;;;;;15.57;100.00;100997.00;5048317;28;20076;-52
2023/10/12 02:50:15;;;;;;;26.90;15.25;;;;;;;15.56;100.00;101000.59;5049816;28;20087;-47
2023/10/12 02:52:46;;;;;;;23.23;14.77;;;;;;;15.59;100.00;101010.13;5049136;28;20795;-48
2023/10/12 02:55:26;;;;;;;26.10;16.40;;;;;;;15.60;100.00;101015.28;5048131;28;20060;-51
2023/10/12 02:57:59;;;;;;;25.00;15.60;;;;;;;15.61;100.00;101016.97;5048594;28;20077;-50
2023/10/12 03:00:35;;;;;;;31.92;18.55;;;;;;;15.61;100.00;101019.63;5046863;28;20702;-48
2023/10/12 03:03:19;;;;;;;29.42;19.48;;;;;;;15.59;100.00;101031.31;5051853;28;20128;-48
2023/10/12 03:05:48;;;;;;;31.10;17.70;;;;;;;15.61;100.00;101019.63;5052569;28;20055;-48
2023/10/12 03:08:17;;;;;;;31.67;18.58;;;;;;;15.62;100.00;101028.41;5049958;28;20079;-50
2023/10/12 03:13:59;;;;;;;25.90;16.25;;;;;;;15.58;100.00;101019.03;4990786;28;20054;-48
2023/10/12 03:16:33;;;;;;;26.50;14.55;;;;;;;15.52;100.00;101015.09;5044075;28;20131;-50
2023/10/12 03:19:17;;;;;;;28.38;15.80;;;;;;;15.49;100.00;101018.84;5052577;28;20056;-52
2023/10/12 03:21:47;;;;;;;27.77;15.07;;;;;;;15.47;100.00;101019.94;5047439;28;20515;-48
2023/10/12 03:24:16;;;;;;;24.48;13.88;;;;;;;15.47;100.00;101009.31;5049258;28;20055;-48
2023/10/12 03:26:49;;;;;;;23.73;13.45;;;;;;;15.45;100.00;100990.06;5050315;28;20068;-48
2023/10/12 03:29:20;;;;;;;23.60;12.18;;;;;;;15.43;100.00;100979.56;5047827;28;20048;-48
2023/10/12 03:31:56;;;;;;;22.95;10.90;;;;;;;15.41;100.00;100988.66;5048176;28;20503;-47
2023/10/12 03:34:35;;;;;;;24.65;11.30;;;;;;;15.42;100.00;100991.16;5047105;28;20049;-49
2023/10/12 03:37:13;;;;;;;19.92;10.55;;;;;;;15.44;100.00;100983.09;5047105;28;20479;-49
2023/10/12 03:39:58;;;;;;;24.83;10.82;;;;;;;15.41;100.00;100988.66;5047367;28;20098;-49
2023/10/12 03:42:42;;;;;;;18.42;10.50;;;;;;;15.43;100.00;101000.78;5045365;28;20057;-49
2023/10/12 03:45:25;;;;;;;22.13;11.93;;;;;;;15.43;100.00;101005.25;5047655;28;20450;-50
2023/10/12 03:48:12;;;;;;;24.98;10.88;;;;;;;15.41;100.00;101010.69;5049711;28;20060;-51
2023/10/12 03:50:58;;;;;;;22.45;10.73;;;;;;;15.39;100.00;101012.59;5048329;28;20053;-50
2023/10/12 03:53:31;;;;;;;21.35;10.85;;;;;;;15.37;100.00;101015.38;5047615;28;20056;-50
2023/10/12 03:56:01;;;;;;;20.02;11.85;;;;;;;15.42;100.00;101007.06;5046614;28;20052;-49
2023/10/12 03:58:38;;;;;;;23.40;12.35;;;;;;;15.41;100.00;101017.81;5049295;28;20071;-50
2023/10/12 04:01:10;;;;;;;21.35;12.55;;;;;;;15.40;100.00;101008.16;5051288;28;20060;-49
2023/10/12 04:03:40;;;;;;;24.13;12.63;;;;;;;15.37;100.00;101014.56;5047546;28;20084;-51
2023/10/12 04:06:15;;;;;;;23.73;11.82;;;;;;;15.37;100.00;101018.03;5047517;28;20056;-49
2023/10/12 04:08:51;;;;;;;23.35;11.93;;;;;;;15.38;100.00;101017.06;5047467;28;20053;-50
2023/10/12 04:17:09;;;;;;;23.75;11.35;;;;;;;15.33;100.00;101007.81;5046920;28;20511;-49
2023/10/12 04:19:43;;;;;;;19.52;10.43;;;;;;;15.35;100.00;101011.16;5047717;28;20049;-52
2023/10/12 04:22:25;;;;;;;22.58;11.52;;;;;;;15.33;100.00;101015.78;5047812;28;20057;-51
2023/10/12 04:24:54;;;;;;;21.67;10.60;;;;;;;15.28;100.00;101008.19;5051384;28;20041;-48
2023/10/12 04:27:39;;;;;;;17.50;9.93;;;;;;;15.26;100.00;101006.66;5051292;28;20044;-52
2023/10/12 04:30:20;;;;;;;18.83;9.60;;;;;;;15.22;100.00;101011.34;5051028;28;20049;-49
2023/10/12 04:33:11;;;;;;;16.13;9.05;;;;;;;15.20;100.00;101010.63;5051092;28;20048;-50
2023/10/12 04:36:09;;;;;;;18.25;9.07;;;;;;;15.16;100.00;101020.66;5050807;28;20045;-50
2023/10/12 04:38:46;;;;;;;21.65;10.52;;;;;;;15.18;100.00;101020.53;5047775;28;20096;-48
2023/10/12 04:41:25;;;;;;;20.48;9.93;;;;;;;15.21;100.00;101030.88;5045073;28;20049;-52
2023/10/12 04:43:53;;;;;;;19.63;11.25;;;;;;;15.22;100.00;101032.56;5046967;28;20063;-48
2023/10/12 04:46:39;;;;;;;25.70;10.35;;;;;;;15.24;100.00;101033.25;5046789;28;20062;-50
2023/10/12 04:52:05;;;;;;;22.00;10.25;;;;;;;15.26;100.00;101031.34;5049615;28;20057;-52
2023/10/12 04:54:36;;;;;;;22.15;10.82;;;;;;;15.26;100.00;101027.84;5046972;28;20183;-47
2023/10/12 04:57:13;;;;;;;22.45;10.05;;;;;;;15.27;100.00;101038.31;5045272;28;20049;-51
2023/10/12 04:59:51;;;;;;;21.15;9.60;;;;;;;15.28;100.00;101031.19;5046689;28;20123;-47
2023/10/12 05:02:28;;;;;;;18.38;9.93;;;;;;;15.26;100.00;101038.44;5048599;28;20820;-49
2023/10/12 05:05:54;;;;;;;23.25;10.65;;;;;;;15.26;100.00;101039.28;5051136;28;20049;-49
2023/10/12 05:08:05;;;;;;;19.83;10.98;;;;;;;15.29;100.00;101035.53;5050751;28;20072;-48
2023/10/12 05:10:48;;;;;;;20.80;10.43;;;;;;;15.23;100.00;101028.94;5049441;28;20045;-47
2023/10/12 05:13:22;;;;;;;20.95;10.32;;;;;;;15.23;100.00;101038.69;5051040;28;20775;-48
2023/10/12 05:16:06;;;;;;;17.42;9.88;;;;;;;15.20;100.00;101039.78;5052991;28;20041;-46
2023/10/12 05:18:37;;;;;;;18.67;10.15;;;;;;;15.18;100.00;101050.50;5054467;28;20423;-48
2023/10/12 05:21:08;;;;;;;19.27;10.48;;;;;;;15.18;100.00;101045.19;5054429;28;20144;-48
2023/10/12 05:23:38;;;;;;;18.13;12.02;;;;;;;15.18;100.00;101060.25;5054475;28;20041;-47
2023/10/12 05:26:09;;;;;;;18.27;11.65;;;;;;;15.17;100.00;101051.47;5054090;28;20041;-46
2023/10/12 05:28:47;;;;;;;21.40;12.85;;;;;;;15.18;100.00;101052.31;5053844;28;20128;-49
2023/10/12 05:31:20;;;;;;;23.70;15.95;;;;;;;15.20;100.00;101056.53;5053921;28;20116;-47
2023/10/12 05:36:45;;;;;;;32.40;21.55;;;;;;;15.24;100.00;101050.97;5054318;28;20053;-48
2023/10/12 05:39:14;;;;;;;33.08;23.85;;;;;;;15.23;100.00;101054.56;5054087;28;20056;-46
2023/10/12 05:41:47;;;;;;;33.97;23.95;;;;;;;15.22;100.00;101053.75;5052463;28;20141;-49
2023/10/12 05:44:25;;;;;;;36.75;25.35;;;;;;;15.25;100.00;101056.13;5054080;28;20036;-47
2023/10/12 05:46:59;;;;;;;33.17;24.92;;;;;;;15.23;100.00;101059.88;5054001;28;20053;-47
2023/10/12 05:49:33;;;;;;;35.55;27.30;;;;;;;15.21;100.00;101062.66;5053794;28;20044;-49
2023/10/12 05:52:05;;;;;;;36.88;26.30;;;;;;;15.23;100.00;101067.81;5053827;28;20638;-48
2023/10/12 05:54:35;;;;;;;38.70;27.65;;;;;;;15.20;100.00;101074.22;5053828;28;20051;-49
2023/10/12 05:57:07;;;;;;;37.67;27.95;;;;;;;15.19;100.00;101076.03;5053748;28;20151;-46
2023/10/12 05:59:38;;;;;;;40.17;29.88;;;;;;;15.17;100.00;101077.97;5052413;28;20049;-46
2023/10/12 06:02:10;;;;;;;38.80;27.65;;;;;;;15.21;100.00;101089.16;5053508;28;20033;-48
2023/10/12 06:04:39;;;;;;;38.47;28.20;;;;;;;15.23;100.00;101094.31;5053718;28;20139;-46
2023/10/12 06:07:10;;;;;;;39.97;29.70;;;;;;;15.19;100.00;101102.50;5053554;28;20480;-48
2023/10/12 06:09:38;;;;;;;40.35;29.20;;;;;;;15.22;100.00;101104.06;5053390;28;20480;-48
2023/10/12 06:12:08;;;;;;;42.38;28.85;;;;;;;15.20;100.00;101112.16;5053000;28;20073;-46
2023/10/12 06:14:37;;;;;;;43.30;28.92;;;;;;;15.23;100.00;101119.03;5052790;28;20083;-50
2023/10/12 06:17:06;;;;;;;18.55;12.98;;;;;;;15.20;100.00;101132.50;5053397;28;20048;-48
2023/10/12 06:19:35;;;;;;;7.82;4.40;;;;;;;15.04;100.00;101138.19;5053276;28;20073;-48
2023/10/12 06:22:19;;;;;;;5.65;1.50;;;;;;;14.75;100.00;101143.13;5053523;28;20061;-50
2023/10/12 06:24:52;;;;;;;1.70;0.93;;;;;;;14.40;100.00;101144.00;5053398;28;20112;-48
2023/10/12 06:27:23;;;;;;;;;;;;;;;14.30;100.00;101155.31;5053912;28;20400;-47
2023/10/12 06:29:54;;;;;;;1.92;0.80;;;;;;;14.16;100.00;101145.75;5053152;28;19928;-49
2023/10/12 06:32:31;;;;;;;4.28;1.30;;;;;;;14.12;100.00;101154.03;5053136;28;20040;-47
2023/10/12 06:35:13;;;;;;;3.38;1.00;;;;;;;14.01;100.00;101165.44;5051821;28;20049;-46
2023/10/12 06:41:00;;;;;;;6.22;1.20;;;;;;;13.86;100.00;101165.63;5052656;28;20443;-49
2023/10/12 06:46:19;;;;;;;6.78;1.70;;;;;;;13.69;100.00;101171.31;5052875;28;20059;-48
2023/10/12 06:48:58;;;;;;;6.15;1.33;;;;;;;13.68;100.00;101177.53;5052530;28;20040;-49
2023/10/12 06:51:28;;;;;;;4.03;1.42;;;;;;;13.66;100.00;101179.44;5052504;28;20076;-47
2023/10/12 06:54:17;;;;;;;7.38;1.65;;;;;;;13.60;100.00;101178.09;5052676;28;20084;-45
2023/10/12 06:56:50;;;;;;;5.95;1.65;;;;;;;13.45;100.00;101189.78;5052539;28;20131;-49
2023/10/12 06:59:35;;;;;;;7.65;1.50;;;;;;;13.47;100.00;101198.41;5052722;28;20522;-47
2023/10/12 07:02:09;;;;;;;8.07;1.70;;;;;;;13.36;100.00;101201.81;5052774;28;20123;-49
2023/10/12 07:04:46;;;;;;;8.27;1.40;;;;;;;13.24;100.00;101202.66;5052089;28;20124;-46
2023/10/12 07:07:15;;;;;;;6.57;1.45;;;;;;;13.25;100.00;101205.22;5051931;28;20507;-47
2023/10/12 07:09:46;;;;;;;8.38;1.90;;;;;;;13.20;100.00;101204.69;5051809;28;20090;-46
2023/10/12 07:12:17;;;;;;;9.13;2.00;;;;;;;13.20;100.00;101204.69;5052307;28;20132;-46
2023/10/12 07:14:47;;;;;;;5.45;1.65;;;;;;;13.22;100.00;101205.41;5050898;28;20097;-48
2023/10/12 07:17:16;;;;;;;8.60;1.92;;;;;;;13.21;100.00;101210.81;5052298;28;20047;-49
2023/10/12 07:19:49;;;;;;;6.63;1.65;;;;;;;13.13;100.00;101209.56;5052054;28;20510;-47
2023/10/12 07:22:18;;;;;;;7.85;1.88;;;;;;;13.18;100.00;101212.72;5052144;28;20120;-47
2023/10/12 07:24:53;;;;;;;8.23;1.80;;;;;;;13.24;100.00;101213.22;5051800;28;20099;-45
2023/10/12 07:27:22;;;;;;;5.72;1.52;;;;;;;13.22;100.00;101223.91;5052178;28;20049;-47
2023/10/12 07:30:08;;;;;;;6.82;1.75;;;;;;;13.21;100.00;101222.25;5051762;28;20087;-47
2023/10/12 07:32:40;;;;;;;6.80;2.00;;;;;;;13.18;100.00;101227.72;5050648;28;20052;-46
2023/10/12 07:35:12;;;;;;;6.75;1.77;;;;;;;13.20;100.00;101236.38;5051952;28;20044;-45
2023/10/12 07:37:42;;;;;;;5.13;1.67;;;;;;;13.26;100.00;101238.59;5051773;28;20045;-46
2023/10/12 07:40:18;;;;;;;10.43;2.28;;;;;;;13.31;100.00;101239.13;5051798;28;20531;-47
2023/10/12 07:42:48;;;;;;;6.53;2.30;;;;;;;13.28;100.00;101243.75;5051725;28;20523;-50
2023/10/12 07:45:17;;;;;;;7.82;2.20;;;;;;;13.27;100.00;101242.91;5051732;28;20103;-49
2023/10/12 07:47:58;;;;;;;6.22;2.13;;;;;;;13.31;100.00;101247.03;5051586;28;20204;-48
2023/10/12 07:50:28;;;;;;;7.77;2.40;;;;;;;13.33;100.00;101249.56;5051685;28;20377;-47
2023/10/12 07:53:06;;;;;;;7.45;2.65;;;;;;;13.32;100.00;101251.38;5051622;28;20045;-46
2023/10/12 07:55:41;;;;;;;6.25;2.50;;;;;;;13.33;100.00;101254.84;5051684;28;20045;-46
2023/10/12 07:58:12;;;;;;;8.20;2.80;;;;;;;13.35;100.00;101255.59;5051618;28;20607;-47
2023/10/12 08:00:41;;;;;;;6.25;2.65;;;;;;;13.36;100.00;101254.66;5050216;28;20492;-47
2023/10/12 08:03:19;;;;;;;6.05;2.55;;;;;;;13.31;100.00;101257.59;5051410;28;20045;-47
2023/10/12 08:05:56;;;;;;;6.88;2.40;;;;;;;13.20;100.00;101244.31;5051433;28;20060;-48
2023/10/12 08:08:34;;;;;;;6.28;2.08;;;;;;;13.14;100.00;101250.88;5051436;28;20044;-46
2023/10/12 08:11:27;;;;;;;5.13;1.98;;;;;;;13.12;100.00;101249.28;5051300;28;20431;-48
2023/10/12 08:13:57;;;;;;;5.55;1.95;;;;;;;13.18;100.00;101255.00;5051283;28;20140;-47
2023/10/12 08:16:28;;;;;;;5.68;2.03;;;;;;;13.22;100.00;101260.03;5051292;28;20063;-47
2023/10/12 08:21:44;;;;;;;6.38;1.50;;;;;;;13.19;100.00;101256.66;5051146;28;20053;-47
2023/10/12 08:24:23;;;;;;;4.90;1.60;;;;;;;13.15;100.00;101254.34;5051337;28;20427;-48
2023/10/12 08:27:00;;;;;;;6.22;1.70;;;;;;;13.11;100.00;101251.06;5051378;28;20061;-47
2023/10/12 08:32:32;;;;;;;3.38;1.63;;;;;;;13.11;100.00;101250.22;5051045;28;20380;-48
2023/10/12 08:35:32;;;;;;;4.25;1.38;;;;;;;13.06;100.00;101253.19;5051293;28;20053;-46
2023/10/12 08:38:25;;;;;;;4.25;1.35;;;;;;;13.03;100.00;101261.31;5055452;28;20048;-46
2023/10/12 08:43:45;;;;;;;4.80;1.30;;;;;;;13.05;100.00;101266.47;5054915;28;20569;-47
2023/10/12 08:46:41;;;;;;;3.58;1.23;;;;;;;13.04;100.00;101256.91;5055188;28;20122;-48
2023/10/12 08:52:05;;;;;;;4.18;1.40;;;;;;;13.05;100.00;101270.00;5054829;28;20060;-48
2023/10/12 08:54:37;;;;;;;2.40;1.25;;;;;;;13.07;100.00;101267.22;5054457;28;20051;-48
2023/10/12 08:57:17;;;;;;;1.58;1.33;;;;;;;13.07;100.00;101268.06;5054595;28;20049;-48
2023/10/12 08:59:59;;;;;;;3.38;1.80;;;;;;;13.11;100.00;101271.34;5054594;28;20531;-49
2023/10/12 09:02:28;;;;;;;3.53;1.50;;;;;;;13.14;100.00;101261.44;5054954;28;20509;-47
2023/10/12 09:04:59;;;;;;;2.92;1.60;;;;;;;13.18;100.00;101255.00;5054475;28;20388;-48
2023/10/12 09:07:40;;;;;;;3.55;1.38;;;;;;;13.23;100.00;101243.25;5054505;28;20096;-50
2023/10/12 09:10:36;;;;;;;4.53;1.63;;;;;;;13.21;100.00;101237.22;5054427;28;20132;-46
2023/10/12 09:12:56;;;;;;;3.05;1.42;;;;;;;13.21;100.00;101230.16;5054580;28;20407;-51
2023/10/12 09:15:32;;;;;;;3.30;1.60;;;;;;;13.16;100.00;101216.44;5054543;28;20056;-47
2023/10/12 09:18:05;;;;;;;4.38;1.63;;;;;;;13.15;100.00;101222.66;5054392;28;20055;-47
2023/10/12 09:20:40;;;;;;;3.17;1.55;;;;;;;13.18;100.00;101243.56;5053245;28;20064;-46
2023/10/12 09:23:13;;;;;;;2.40;1.38;;;;;;;13.21;100.00;101258.34;5054785;28;20148;-46
2023/10/12 09:26:14;;;;;;;4.47;1.60;;;;;;;13.27;100.00;101257.94;5054440;28;20119;-46
2023/10/12 09:29:03;;;;;;;3.00;1.52;;;;;;;13.29;100.00;101266.59;5054237;28;20495;-47
2023/10/12 09:32:12;;;;;;;4.72;1.92;;;;;;;13.26;100.00;101267.63;5052980;28;20060;-46
2023/10/12 09:37:33;;;;;;;4.65;2.50;;;;;;;13.27;100.00;101256.13;5054184;28;20128;-46
2023/10/12 09:40:04;;;;;;;8.45;4.35;;;;;;;13.27;100.00;101250.84;5054157;28;20746;-46
2023/10/12 09:42:36;;;;;;;6.00;3.13;;;;;;;13.26;100.00;101251.78;5053779;28;20064;-46
2023/10/12 09:45:08;;;;;;;8.93;6.50;;;;;;;13.31;100.00;101249.69;5053771;28;20049;-50
2023/10/12 09:48:05;;;;;;;7.18;3.75;;;;;;;13.34;100.00;101251.25;5053646;28;20045;-46
2023/10/12 09:50:35;;;;;;;4.15;2.30;;;;;;;13.37;100.00;101244.94;5053810;28;20099;-49
2023/10/12 09:53:21;;;;;;;4.78;2.28;;;;;;;13.39;100.00;101257.09;5051042;28;20562;-47
2023/10/12 09:58:51;;;;;;;6.80;2.97;;;;;;;13.38;100.00;101254.56;5042354;28;20064;-48
2023/10/12 10:01:29;;;;;;;4.47;2.50;;;;;;;13.43;100.00;101252.44;5054014;28;20098;-50
2023/10/12 10:04:27;;;;;;;5.05;2.78;;;;;;;13.44;100.00;101252.34;5053655;28;20140;-50
2023/10/12 10:07:08;;;;;;;7.00;3.00;;;;;;;13.47;100.00;101253.91;5050852;28;20053;-49
2023/10/12 10:09:38;;;;;;;4.70;2.42;;;;;;;13.50;100.00;101246.63;5049467;28;20457;-47
2023/10/12 10:12:08;;;;;;;6.18;3.25;;;;;;;13.59;100.00;101242.44;5047921;28;20045;-49
2023/10/12 10:14:44;;;;;;;6.57;3.10;;;;;;;13.61;100.00;101237.09;5053106;28;20053;-49
2023/10/12 10:17:14;;;;;;;5.57;2.97;;;;;;;13.62;100.00;101241.41;5049244;28;20439;-47
2023/10/12 10:19:51;;;;;;;6.10;3.50;;;;;;;13.60;100.00;101248.59;5051240;28;20460;-49
2023/10/12 10:22:23;;;;;;;9.52;3.60;;;;;;;13.62;100.00;101242.25;5048832;28;20138;-47
2023/10/12 10:24:55;;;;;;;7.00;3.55;;;;;;;13.64;100.00;101231.56;5047281;28;20072;-47
2023/10/12 10:27:34;;;;;;;8.63;4.38;;;;;;;13.70;100.00;101236.41;5053232;28;20418;-49
2023/10/12 10:30:25;;;;;;;8.75;4.88;;;;;;;13.69;100.00;101235.56;5053186;28;20041;-45
2023/10/12 10:33:08;;;;;;;9.00;5.93;;;;;;;13.75;100.00;101231.63;5048736;28;20107;-46
2023/10/12 10:35:58;;;;;;;10.88;7.20;;;;;;;13.79;100.00;101233.09;5047934;28;20056;-48
2023/10/12 10:38:33;;;;;;;9.38;5.30;;;;;;;13.85;100.00;101232.66;5053110;28;20045;-50
2023/10/12 10:41:08;;;;;;;8.60;5.18;;;;;;;13.80;100.00;101234.78;5052856;28;20060;-47
2023/10/12 10:43:38;;;;;;;8.23;5.25;;;;;;;13.88;100.00;101228.97;5048496;28;20057;-47
2023/10/12 10:46:10;;;;;;;10.02;5.47;;;;;;;13.92;100.00;101233.06;5049295;28;20061;-47
2023/10/12 10:48:39;;;;;;;;;;;;;;;14.00;100.00;101236.00;5053431;28;20535;-48
2023/10/12 10:51:18;;;;;;;7.75;4.78;;;;;;;14.06;100.00;101226.75;5051621;28;19935;-49
2023/10/12 10:53:52;;;;;;;8.52;5.15;;;;;;;14.14;100.00;101228.84;5052820;28;20065;-49
2023/10/12 10:56:34;;;;;;;9.23;5.07;;;;;;;14.14;100.00;101220.91;5052728;28;20049;-51
2023/10/12 10:59:04;;;;;;;8.70;4.95;;;;;;;14.21;100.00;101227.41;5051943;28;20060;-49
2023/10/12 11:01:32;;;;;;;10.20;5.47;;;;;;;14.24;100.00;101221.91;5052860;28;20369;-51
2023/10/12 11:04:01;;;;;;;10.98;5.78;;;;;;;14.29;100.00;101219.75;5052509;28;20453;-48
2023/10/12 11:06:31;;;;;;;9.60;5.97;;;;;;;14.32;100.00;101224.81;5052510;28;20415;-50
2023/10/12 11:09:05;;;;;;;11.73;7.03;;;;;;;14.37;100.00;101224.47;5052438;28;20053;-48
2023/10/12 11:11:44;;;;;;;9.93;6.70;;;;;;;14.42;100.00;101206.44;5050919;28;20045;-50
2023/10/12 11:14:16;;;;;;;10.48;5.90;;;;;;;14.47;100.00;101209.56;5051877;28;20045;-51
2023/10/12 11:16:46;;;;;;;8.70;6.10;;;;;;;14.50;100.00;101205.84;5051847;28;20131;-50
2023/10/12 11:19:14;;;;;;;10.30;5.88;;;;;;;14.54;100.00;101199.38;5047756;28;20106;-49
2023/10/12 11:21:51;;;;;;;9.05;5.82;;;;;;;14.57;100.00;101193.00;5049030;28;20123;-48
2023/10/12 11:24:22;;;;;;;8.82;5.75;;;;;;;14.67;100.00;101196.66;5052110;28;20504;-46
2023/10/12 11:26:54;;;;;;;9.70;5.80;;;;;;;14.70;100.00;101197.25;5051981;28;20052;-46
2023/10/12 11:29:24;;;;;;;9.27;5.97;;;;;;;14.73;100.00;101190.06;5048239;28;20057;-51
2023/10/12 11:32:08;;;;;;;9.80;6.53;;;;;;;14.78;100.00;101177.28;5048346;28;20059;-50
2023/10/12 11:34:45;;;;;;;10.23;5.90;;;;;;;14.83;100.00;101175.13;5050089;28;20072;-47
2023/10/12 11:37:17;;;;;;;8.95;5.97;;;;;;;14.83;100.00;101169.84;5048085;28;20048;-49
2023/10/12 11:39:46;;;;;;;9.80;6.32;;;;;;;14.80;100.00;101167.44;5050973;28;20067;-50
2023/10/12 11:42:14;;;;;;;10.02;6.05;;;;;;;14.85;100.00;101170.56;5050339;28;20489;-50
2023/10/12 11:44:45;;;;;;;10.20;6.45;;;;;;;14.88;100.00;101165.03;5051847;28;20049;-47
2023/10/12 11:47:37;;;;;;;9.75;6.32;;;;;;;14.92;100.00;101163.00;5051834;28;20048;-51
2023/10/12 11:50:11;;;;;;;9.98;6.90;;;;;;;14.98;100.00;101163.34;5051838;28;20105;-49
2023/10/12 11:52:40;;;;;;;9.75;6.88;;;;;;;15.04;100.00;101168.16;5051899;28;20067;-48
2023/10/12 11:55:19;;;;;;;11.65;8.13;;;;;;;15.06;100.00;101161.91;5052010;28;20568;-50
2023/10/12 11:57:53;;;;;;;12.05;7.75;;;;;;;15.08;100.00;101159.97;5049524;28;20048;-46
2023/10/12 12:00:29;;;;;;;11.35;7.68;;;;;;;15.09;100.00;101156.34;5047319;28;20051;-46
2023/10/12 12:02:59;;;;;;;11.88;8.60;;;;;;;15.05;100.00;101163.69;5047188;28;20043;-48
2023/10/12 12:05:29;;;;;;;12.85;8.23;;;;;;;15.05;100.00;101163.69;5048073;28;20069;-47
2023/10/12 12:08:06;;;;;;;9.90;7.28;;;;;;;15.07;100.00;101164.41;5051456;28;20128;-47
2023/10/12 12:10:44;;;;;;;11.88;7.95;;;;;;;15.11;100.00;101173.81;5050402;28;20547;-47
2023/10/12 12:13:15;;;;;;;13.23;8.60;;;;;;;15.11;100.00;101172.97;5051388;28;20472;-47
2023/10/12 12:15:44;;;;;;;13.38;9.05;;;;;;;15.12;100.00;101167.56;5051286;28;20060;-46
2023/10/12 12:18:18;;;;;;;14.68;10.15;;;;;;;15.16;100.00;101169.00;5051561;28;20128;-47
2023/10/12 12:20:48;;;;;;;13.55;9.95;;;;;;;15.17;100.00;101169.81;5050076;28;20056;-51
2023/10/12 12:23:18;;;;;;;14.68;10.38;;;;;;;15.19;100.00;101154.66;5049945;28;20041;-46
2023/10/12 12:25:47;;;;;;;13.02;9.90;;;;;;;15.20;100.00;101158.97;5051150;28;20044;-47